D07

Faith Municipal Airport

Faith, South Dakota, USA
METAR KD07 260256Z AUTO 34008KT 13/02 A2989 RMK AO1 WSHFT 0202 SLP127 T01280017 53011
Observed Flight Rules
Apr-26 @ 02:56 UTC (41 minutes ago)
Wind
340° at 8 knots
Temperatures Readings
Current 13°C / 55°F
Dewpoint 2°C / 36°F
Humidity 47%
Altimeter 29.89" Hg
Pressure 1012.7 hPa
Elevation 784
METAR KD07 260256Z AUTO 34008KT 13/02 A2989 RMK AO1 WSHFT 0202 SLP127 T01280017 53011
Observed Flight Rules
Apr-26 @ 02:56 UTC
(41 minutes ago)
Wind
340° at 8 knots
Temperature Dewpoint
13°C / 55°F 2°C / 36°F
Humidity Altimeter Pressure
47% 29.89" Hg 1012.7 hPa